sensor_id;sensor_type;location;lat;lon;timestamp;pressure;altitude;pressure_sealevel;temperature;humidity
47670;BME280;33408;52.062;11.722;2023-11-22T00:02:11;102126.63;;;0.69;100.00
47670;BME280;33408;52.062;11.722;2023-11-22T00:04:38;102132.81;;;0.55;100.00
47670;BME280;33408;52.062;11.722;2023-11-22T00:07:05;102133.00;;;0.60;100.00
47670;BME280;33408;52.062;11.722;2023-11-22T00:09:32;102134.88;;;0.64;100.00
47670;BME280;33408;52.062;11.722;2023-11-22T00:12:00;102132.25;;;0.62;100.00
47670;BME280;33408;52.062;11.722;2023-11-22T00:14:26;102126.00;;;0.56;100.00
47670;BME280;33408;52.062;11.722;2023-11-22T00:16:53;102134.06;;;0.45;100.00
47670;BME280;33408;52.062;11.722;2023-11-22T00:19:20;102134.78;;;0.43;100.00
47670;BME280;33408;52.062;11.722;2023-11-22T00:21:47;102138.41;;;0.48;100.00
47670;BME280;33408;52.062;11.722;2023-11-22T00:24:14;102140.69;;;0.42;100.00
47670;BME280;33408;52.062;11.722;2023-11-22T00:26:40;102154.03;;;0.36;100.00
47670;BME280;33408;52.062;11.722;2023-11-22T00:29:09;102160.16;;;0.40;100.00
47670;BME280;33408;52.062;11.722;2023-11-22T00:31:36;102165.09;;;0.36;100.00
47670;BME280;33408;52.062;11.722;2023-11-22T00:34:02;102162.56;;;0.36;100.00
47670;BME280;33408;52.062;11.722;2023-11-22T00:36:29;102161.56;;;0.33;100.00
47670;BME280;33408;52.062;11.722;2023-11-22T00:38:55;102166.22;;;0.24;100.00
47670;BME280;33408;52.062;11.722;2023-11-22T00:41:22;102169.06;;;0.30;100.00
47670;BME280;33408;52.062;11.722;2023-11-22T00:43:49;102155.66;;;0.34;100.00
47670;BME280;33408;52.062;11.722;2023-11-22T00:46:17;102164.09;;;0.33;100.00
47670;BME280;33408;52.062;11.722;2023-11-22T00:48:43;102165.22;;;0.20;100.00
47670;BME280;33408;52.062;11.722;2023-11-22T00:51:10;102175.19;;;0.15;100.00
47670;BME280;33408;52.062;11.722;2023-11-22T00:53:38;102176.41;;;0.24;100.00
47670;BME280;33408;52.062;11.722;2023-11-22T00:56:05;102173.50;;;0.16;100.00
47670;BME280;33408;52.062;11.722;2023-11-22T00:58:32;102181.53;;;0.06;100.00
47670;BME280;33408;52.062;11.722;2023-11-22T01:00:59;102186.06;;;0.11;100.00
47670;BME280;33408;52.062;11.722;2023-11-22T01:03:27;102185.16;;;0.11;100.00
47670;BME280;33408;52.062;11.722;2023-11-22T01:05:54;102186.47;;;0.03;100.00
47670;BME280;33408;52.062;11.722;2023-11-22T01:08:20;102192.25;;;-0.02;100.00
47670;BME280;33408;52.062;11.722;2023-11-22T01:10:47;102199.22;;;0.03;100.00
47670;BME280;33408;52.062;11.722;2023-11-22T01:13:14;102203.06;;;-0.06;100.00
47670;BME280;33408;52.062;11.722;2023-11-22T01:15:41;102204.09;;;-0.02;100.00
47670;BME280;33408;52.062;11.722;2023-11-22T01:18:09;102196.22;;;-0.07;100.00
47670;BME280;33408;52.062;11.722;2023-11-22T01:20:37;102194.34;;;-0.11;100.00
47670;BME280;33408;52.062;11.722;2023-11-22T01:23:04;102201.38;;;-0.05;100.00
47670;BME280;33408;52.062;11.722;2023-11-22T01:25:31;102199.44;;;-0.11;100.00
47670;BME280;33408;52.062;11.722;2023-11-22T01:27:58;102200.53;;;-0.06;100.00
47670;BME280;33408;52.062;11.722;2023-11-22T01:30:25;102197.38;;;-0.18;100.00
47670;BME280;33408;52.062;11.722;2023-11-22T01:32:53;102202.69;;;-0.13;100.00
47670;BME280;33408;52.062;11.722;2023-11-22T01:35:20;102206.78;;;-0.17;100.00
47670;BME280;33408;52.062;11.722;2023-11-22T01:37:48;102200.22;;;-0.12;100.00
47670;BME280;33408;52.062;11.722;2023-11-22T01:40:16;102202.22;;;-0.06;100.00
47670;BME280;33408;52.062;11.722;2023-11-22T01:42:44;102201.91;;;-0.12;100.00
47670;BME280;33408;52.062;11.722;2023-11-22T01:45:12;102194.63;;;-0.05;100.00
47670;BME280;33408;52.062;11.722;2023-11-22T01:47:39;102206.25;;;-0.10;100.00
47670;BME280;33408;52.062;11.722;2023-11-22T01:50:06;102208.69;;;-0.13;100.00
47670;BME280;33408;52.062;11.722;2023-11-22T01:52:34;102215.66;;;-0.09;100.00
47670;BME280;33408;52.062;11.722;2023-11-22T01:55:03;102214.88;;;-0.08;100.00
47670;BME280;33408;52.062;11.722;2023-11-22T01:57:31;102212.03;;;-0.14;100.00
47670;BME280;33408;52.062;11.722;2023-11-22T02:00:00;102215.22;;;-0.18;100.00
47670;BME280;33408;52.062;11.722;2023-11-22T02:02:27;102220.75;;;-0.27;100.00
47670;BME280;33408;52.062;11.722;2023-11-22T02:04:54;102216.19;;;-0.32;100.00
47670;BME280;33408;52.062;11.722;2023-11-22T02:07:20;102223.53;;;-0.22;100.00
47670;BME280;33408;52.062;11.722;2023-11-22T02:09:47;102223.66;;;-0.19;100.00
47670;BME280;33408;52.062;11.722;2023-11-22T02:12:16;102223.44;;;-0.24;100.00
47670;BME280;33408;52.062;11.722;2023-11-22T02:14:42;102234.94;;;-0.32;100.00
47670;BME280;33408;52.062;11.722;2023-11-22T02:17:10;102235.72;;;-0.33;100.00
47670;BME280;33408;52.062;11.722;2023-11-22T02:19:36;102231.41;;;-0.34;100.00
47670;BME280;33408;52.062;11.722;2023-11-22T02:22:03;102229.09;;;-0.29;100.00
47670;BME280;33408;52.062;11.722;2023-11-22T02:24:31;102244.47;;;-0.28;100.00
47670;BME280;33408;52.062;11.722;2023-11-22T02:26:59;102249.75;;;-0.41;100.00
47670;BME280;33408;52.062;11.722;2023-11-22T02:29:26;102260.72;;;-0.42;100.00
47670;BME280;33408;52.062;11.722;2023-11-22T02:31:53;102260.16;;;-0.37;100.00
47670;BME280;33408;52.062;11.722;2023-11-22T02:34:20;102265.88;;;-0.41;100.00
47670;BME280;33408;52.062;11.722;2023-11-22T02:36:46;102268.69;;;-0.36;100.00
47670;BME280;33408;52.062;11.722;2023-11-22T02:39:14;102261.19;;;-0.33;100.00
47670;BME280;33408;52.062;11.722;2023-11-22T02:41:43;102276.91;;;-0.42;100.00
47670;BME280;33408;52.062;11.722;2023-11-22T02:44:10;102278.63;;;-0.57;100.00
47670;BME280;33408;52.062;11.722;2023-11-22T02:46:41;102273.72;;;-0.54;100.00
47670;BME280;33408;52.062;11.722;2023-11-22T02:49:07;102266.59;;;-0.60;100.00
47670;BME280;33408;52.062;11.722;2023-11-22T02:51:35;102269.56;;;-0.52;100.00
47670;BME280;33408;52.062;11.722;2023-11-22T02:54:02;102276.41;;;-0.51;100.00
47670;BME280;33408;52.062;11.722;2023-11-22T02:56:29;102270.59;;;-0.65;100.00
47670;BME280;33408;52.062;11.722;2023-11-22T02:58:58;102273.72;;;-0.54;100.00
47670;BME280;33408;52.062;11.722;2023-11-22T03:01:24;102282.22;;;-0.53;100.00
47670;BME280;33408;52.062;11.722;2023-11-22T03:03:51;102281.28;;;-0.56;100.00
47670;BME280;33408;52.062;11.722;2023-11-22T03:06:18;102283.56;;;-0.60;100.00
47670;BME280;33408;52.062;11.722;2023-11-22T03:08:44;102279.41;;;-0.75;100.00
47670;BME280;33408;52.062;11.722;2023-11-22T03:11:11;102282.88;;;-0.58;100.00
47670;BME280;33408;52.062;11.722;2023-11-22T03:13:38;102281.75;;;-0.63;100.00
47670;BME280;33408;52.062;11.722;2023-11-22T03:16:06;102294.94;;;-0.70;100.00
47670;BME280;33408;52.062;11.722;2023-11-22T03:18:34;102298.44;;;-0.68;100.00
47670;BME280;33408;52.062;11.722;2023-11-22T03:21:01;102297.75;;;-0.65;100.00
47670;BME280;33408;52.062;11.722;2023-11-22T03:23:28;102301.25;;;-0.63;100.00
47670;BME280;33408;52.062;11.722;2023-11-22T03:25:54;102309.78;;;-0.63;100.00
47670;BME280;33408;52.062;11.722;2023-11-22T03:28:21;102313.81;;;-0.66;100.00
47670;BME280;33408;52.062;11.722;2023-11-22T03:30:47;102313.25;;;-0.77;100.00
47670;BME280;33408;52.062;11.722;2023-11-22T03:33:14;102315.81;;;-0.61;100.00
47670;BME280;33408;52.062;11.722;2023-11-22T03:35:41;102324.47;;;-0.74;100.00
47670;BME280;33408;52.062;11.722;2023-11-22T03:38:08;102319.03;;;-0.80;100.00
47670;BME280;33408;52.062;11.722;2023-11-22T03:40:35;102328.28;;;-0.82;100.00
47670;BME280;33408;52.062;11.722;2023-11-22T03:43:01;102345.25;;;-0.66;100.00
47670;BME280;33408;52.062;11.722;2023-11-22T03:45:28;102334.25;;;-0.81;100.00
47670;BME280;33408;52.062;11.722;2023-11-22T03:47:55;102343.00;;;-0.76;100.00
47670;BME280;33408;52.062;11.722;2023-11-22T03:50:23;102350.63;;;-0.76;100.00
47670;BME280;33408;52.062;11.722;2023-11-22T03:52:49;102355.81;;;-0.75;100.00
47670;BME280;33408;52.062;11.722;2023-11-22T03:55:16;102352.47;;;-0.74;100.00
47670;BME280;33408;52.062;11.722;2023-11-22T03:57:43;102351.22;;;-0.65;100.00
47670;BME280;33408;52.062;11.722;2023-11-22T04:00:11;102344.13;;;-0.71;100.00
47670;BME280;33408;52.062;11.722;2023-11-22T04:02:39;102345.19;;;-0.67;100.00
47670;BME280;33408;52.062;11.722;2023-11-22T04:05:07;102337.91;;;-0.76;100.00
47670;BME280;33408;52.062;11.722;2023-11-22T04:07:36;102349.13;;;-0.73;100.00
47670;BME280;33408;52.062;11.722;2023-11-22T04:10:04;102346.81;;;-0.68;100.00
47670;BME280;33408;52.062;11.722;2023-11-22T04:12:31;102349.22;;;-0.71;100.00
47670;BME280;33408;52.062;11.722;2023-11-22T04:15:00;102355.13;;;-0.72;100.00
47670;BME280;33408;52.062;11.722;2023-11-22T04:17:27;102353.59;;;-0.68;100.00
47670;BME280;33408;52.062;11.722;2023-11-22T04:19:53;102354.31;;;-0.71;100.00
47670;BME280;33408;52.062;11.722;2023-11-22T04:22:20;102353.09;;;-0.78;100.00
47670;BME280;33408;52.062;11.722;2023-11-22T04:24:48;102351.84;;;-0.69;100.00
47670;BME280;33408;52.062;11.722;2023-11-22T04:27:15;102368.38;;;-0.78;100.00
47670;BME280;33408;52.062;11.722;2023-11-22T04:29:41;102378.47;;;-0.79;100.00
47670;BME280;33408;52.062;11.722;2023-11-22T04:32:08;102399.50;;;-0.83;100.00
47670;BME280;33408;52.062;11.722;2023-11-22T04:34:35;102397.81;;;-0.83;100.00
47670;BME280;33408;52.062;11.722;2023-11-22T04:37:03;102398.44;;;-0.87;100.00
47670;BME280;33408;52.062;11.722;2023-11-22T04:39:30;102401.59;;;-0.91;100.00
47670;BME280;33408;52.062;11.722;2023-11-22T04:41:58;102405.66;;;-0.95;100.00
47670;BME280;33408;52.062;11.722;2023-11-22T04:44:25;102403.81;;;-0.97;100.00
47670;BME280;33408;52.062;11.722;2023-11-22T04:46:52;102404.28;;;-1.04;100.00
47670;BME280;33408;52.062;11.722;2023-11-22T04:49:19;102408.38;;;-1.06;100.00
47670;BME280;33408;52.062;11.722;2023-11-22T04:51:46;102415.31;;;-1.04;100.00
47670;BME280;33408;52.062;11.722;2023-11-22T04:54:12;102427.78;;;-1.08;100.00
47670;BME280;33408;52.062;11.722;2023-11-22T04:56:39;102427.78;;;-1.08;100.00
47670;BME280;33408;52.062;11.722;2023-11-22T04:59:07;102439.38;;;-1.14;100.00
47670;BME280;33408;52.062;11.722;2023-11-22T05:01:34;102438.50;;;-1.14;100.00
47670;BME280;33408;52.062;11.722;2023-11-22T05:04:01;102444.75;;;-1.24;100.00
47670;BME280;33408;52.062;11.722;2023-11-22T05:06:27;102445.97;;;-1.17;100.00
47670;BME280;33408;52.062;11.722;2023-11-22T05:08:54;102460.34;;;-1.18;100.00
47670;BME280;33408;52.062;11.722;2023-11-22T05:11:21;102451.91;;;-1.17;100.00
47670;BME280;33408;52.062;11.722;2023-11-22T05:13:48;102461.84;;;-1.21;100.00
47670;BME280;33408;52.062;11.722;2023-11-22T05:16:16;102473.81;;;-1.34;100.00
47670;BME280;33408;52.062;11.722;2023-11-22T05:18:43;102478.91;;;-1.34;100.00
47670;BME280;33408;52.062;11.722;2023-11-22T05:21:10;102476.22;;;-1.22;100.00
47670;BME280;33408;52.062;11.722;2023-11-22T05:23:37;102471.56;;;-1.29;100.00
47670;BME280;33408;52.062;11.722;2023-11-22T05:26:03;102481.72;;;-1.29;100.00
47670;BME280;33408;52.062;11.722;2023-11-22T05:28:30;102482.53;;;-1.30;100.00
47670;BME280;33408;52.062;11.722;2023-11-22T05:30:57;102485.59;;;-1.36;100.00
47670;BME280;33408;52.062;11.722;2023-11-22T05:33:25;102492.16;;;-1.39;100.00
47670;BME280;33408;52.062;11.722;2023-11-22T05:35:52;102486.03;;;-1.43;100.00
47670;BME280;33408;52.062;11.722;2023-11-22T05:38:19;102487.00;;;-1.41;100.00
47670;BME280;33408;52.062;11.722;2023-11-22T05:40:45;102490.41;;;-1.40;100.00
47670;BME280;33408;52.062;11.722;2023-11-22T05:43:12;102494.06;;;-1.50;100.00
47670;BME280;33408;52.062;11.722;2023-11-22T05:45:39;102497.44;;;-1.51;100.00
47670;BME280;33408;52.062;11.722;2023-11-22T05:48:05;102495.06;;;-1.48;100.00
47670;BME280;33408;52.062;11.722;2023-11-22T05:50:34;102498.38;;;-1.49;100.00
47670;BME280;33408;52.062;11.722;2023-11-22T05:53:00;102501.19;;;-1.59;100.00
47670;BME280;33408;52.062;11.722;2023-11-22T05:55:28;102505.66;;;-1.55;100.00
47670;BME280;33408;52.062;11.722;2023-11-22T05:57:55;102498.63;;;-1.59;100.00
47670;BME280;33408;52.062;11.722;2023-11-22T06:00:21;102502.63;;;-1.63;100.00
47670;BME280;33408;52.062;11.722;2023-11-22T06:02:48;102503.78;;;-1.58;100.00
47670;BME280;33408;52.062;11.722;2023-11-22T06:05:14;102496.97;;;-1.59;100.00
47670;BME280;33408;52.062;11.722;2023-11-22T06:07:42;102516.75;;;-1.68;100.00
47670;BME280;33408;52.062;11.722;2023-11-22T06:10:09;102523.88;;;-1.62;100.00
47670;BME280;33408;52.062;11.722;2023-11-22T06:12:37;102522.38;;;-1.59;100.00
47670;BME280;33408;52.062;11.722;2023-11-22T06:15:04;102535.69;;;-1.63;100.00
47670;BME280;33408;52.062;11.722;2023-11-22T06:17:31;102527.88;;;-1.66;100.00
47670;BME280;33408;52.062;11.722;2023-11-22T06:19:58;102532.88;;;-1.68;100.00
47670;BME280;33408;52.062;11.722;2023-11-22T06:22:24;102523.59;;;-1.67;100.00
47670;BME280;33408;52.062;11.722;2023-11-22T06:24:52;102513.25;;;-1.70;100.00
47670;BME280;33408;52.062;11.722;2023-11-22T06:27:19;102511.94;;;-1.63;100.00
47670;BME280;33408;52.062;11.722;2023-11-22T06:29:46;102523.13;;;-1.75;100.00
47670;BME280;33408;52.062;11.722;2023-11-22T06:32:12;102522.38;;;-1.59;100.00
47670;BME280;33408;52.062;11.722;2023-11-22T06:34:39;102526.03;;;-1.69;100.00
47670;BME280;33408;52.062;11.722;2023-11-22T06:37:05;102538.66;;;-1.70;100.00
47670;BME280;33408;52.062;11.722;2023-11-22T06:39:34;102537.38;;;-1.63;100.00
47670;BME280;33408;52.062;11.722;2023-11-22T06:42:03;102549.50;;;-1.59;100.00
47670;BME280;33408;52.062;11.722;2023-11-22T06:44:29;102553.44;;;-1.78;100.00
47670;BME280;33408;52.062;11.722;2023-11-22T06:46:58;102565.28;;;-1.78;100.00
47670;BME280;33408;52.062;11.722;2023-11-22T06:49:25;102574.47;;;-1.80;100.00
47670;BME280;33408;52.062;11.722;2023-11-22T06:51:51;102575.38;;;-1.80;100.00
47670;BME280;33408;52.062;11.722;2023-11-22T06:54:19;102586.34;;;-1.94;100.00
47670;BME280;33408;52.062;11.722;2023-11-22T06:56:45;102580.97;;;-1.99;100.00
47670;BME280;33408;52.062;11.722;2023-11-22T06:59:14;102576.25;;;-2.06;100.00
47670;BME280;33408;52.062;11.722;2023-11-22T07:01:40;102590.72;;;-1.92;100.00
47670;BME280;33408;52.062;11.722;2023-11-22T07:04:07;102585.75;;;-2.04;100.00
47670;BME280;33408;52.062;11.722;2023-11-22T07:06:34;102588.47;;;-1.87;100.00
47670;BME280;33408;52.062;11.722;2023-11-22T07:09:01;102597.97;;;-1.98;100.00
47670;BME280;33408;52.062;11.722;2023-11-22T07:11:28;102603.22;;;-1.95;100.00
47670;BME280;33408;52.062;11.722;2023-11-22T07:13:56;102603.84;;;-1.99;100.00
47670;BME280;33408;52.062;11.722;2023-11-22T07:16:24;102602.84;;;-1.88;100.00
47670;BME280;33408;52.062;11.722;2023-11-22T07:18:51;102613.97;;;-1.86;100.00
47670;BME280;33408;52.062;11.722;2023-11-22T07:21:17;102610.84;;;-1.81;100.00
47670;BME280;33408;52.062;11.722;2023-11-22T07:23:46;102615.31;;;-1.77;100.00
47670;BME280;33408;52.062;11.722;2023-11-22T07:26:12;102618.97;;;-1.87;100.00
47670;BME280;33408;52.062;11.722;2023-11-22T07:28:39;102623.53;;;-1.68;100.00
47670;BME280;33408;52.062;11.722;2023-11-22T07:31:07;102609.16;;;-1.68;100.00
47670;BME280;33408;52.062;11.722;2023-11-22T07:33:35;102601.03;;;-1.62;100.00
47670;BME280;33408;52.062;11.722;2023-11-22T07:36:04;102597.88;;;-1.58;100.00
47670;BME280;33408;52.062;11.722;2023-11-22T07:38:31;102599.84;;;-1.54;100.00
47670;BME280;33408;52.062;11.722;2023-11-22T07:40:59;102593.75;;;-1.42;100.00
47670;BME280;33408;52.062;11.722;2023-11-22T07:43:26;102588.59;;;-1.29;100.00
47670;BME280;33408;52.062;11.722;2023-11-22T07:45:52;102595.44;;;-1.28;100.00
47670;BME280;33408;52.062;11.722;2023-11-22T07:48:20;102595.38;;;-1.15;100.00
47670;BME280;33408;52.062;11.722;2023-11-22T07:50:49;102584.94;;;-1.19;100.00
47670;BME280;33408;52.062;11.722;2023-11-22T07:53:17;102575.84;;;-1.16;100.00
47670;BME280;33408;52.062;11.722;2023-11-22T07:55:44;102575.31;;;-1.10;100.00
47670;BME280;33408;52.062;11.722;2023-11-22T07:58:10;102566.81;;;-1.11;100.00
47670;BME280;33408;52.062;11.722;2023-11-22T08:00:37;102570.31;;;-1.08;100.00
47670;BME280;33408;52.062;11.722;2023-11-22T08:03:04;102581.81;;;-1.00;100.00
47670;BME280;33408;52.062;11.722;2023-11-22T08:05:32;102573.13;;;-0.89;100.00
47670;BME280;33408;52.062;11.722;2023-11-22T08:08:03;102573.94;;;-0.90;100.00
47670;BME280;33408;52.062;11.722;2023-11-22T08:10:32;102565.59;;;-0.73;100.00
47670;BME280;33408;52.062;11.722;2023-11-22T08:13:00;102554.41;;;-0.60;100.00
47670;BME280;33408;52.062;11.722;2023-11-22T08:15:27;102545.75;;;-0.63;100.00
47670;BME280;33408;52.062;11.722;2023-11-22T08:17:54;102553.81;;;-0.56;100.00
47670;BME280;33408;52.062;11.722;2023-11-22T08:20:21;102550.13;;;-0.46;100.00
47670;BME280;33408;52.062;11.722;2023-11-22T08:22:47;102543.78;;;-0.38;100.00
47670;BME280;33408;52.062;11.722;2023-11-22T08:25:17;102550.47;;;-0.40;100.00
47670;BME280;33408;52.062;11.722;2023-11-22T08:27:44;102557.47;;;-0.35;100.00
47670;BME280;33408;52.062;11.722;2023-11-22T08:30:11;102570.22;;;-0.35;100.00
47670;BME280;33408;52.062;11.722;2023-11-22T08:32:41;102582.81;;;-0.39;100.00
47670;BME280;33408;52.062;11.722;2023-11-22T08:35:09;102587.63;;;-0.43;100.00
47670;BME280;33408;52.062;11.722;2023-11-22T08:37:36;102589.38;;;-0.42;100.00
47670;BME280;33408;52.062;11.722;2023-11-22T08:40:09;102597.28;;;-0.38;100.00
47670;BME280;33408;52.062;11.722;2023-11-22T08:42:38;102605.00;;;-0.21;100.00
47670;BME280;33408;52.062;11.722;2023-11-22T08:45:06;102614.97;;;-0.26;100.00
47670;BME280;33408;52.062;11.722;2023-11-22T08:47:34;102613.19;;;-0.27;100.00
47670;BME280;33408;52.062;11.722;2023-11-22T08:50:01;102608.22;;;-0.09;100.00
47670;BME280;33408;52.062;11.722;2023-11-22T08:52:29;102609.84;;;-0.11;100.00
47670;BME280;33408;52.062;11.722;2023-11-22T08:54:56;102606.63;;;-0.07;100.00
47670;BME280;33408;52.062;11.722;2023-11-22T08:57:22;102610.34;;;-0.02;100.00
47670;BME280;33408;52.062;11.722;2023-11-22T08:59:51;102614.03;;;0.04;100.00
47670;BME280;33408;52.062;11.722;2023-11-22T09:02:19;102602.63;;;-0.03;100.00
47670;BME280;33408;52.062;11.722;2023-11-22T09:04:47;102596.94;;;0.03;100.00
47670;BME280;33408;52.062;11.722;2023-11-22T09:07:14;102591.50;;;0.11;100.00
47670;BME280;33408;52.062;11.722;2023-11-22T09:09:41;102577.44;;;0.03;100.00
47670;BME280;33408;52.062;11.722;2023-11-22T09:12:09;102575.78;;;0.04;100.00
47670;BME280;33408;52.062;11.722;2023-11-22T09:14:39;102573.41;;;0.23;100.00
47670;BME280;33408;52.062;11.722;2023-11-22T09:17:07;102574.53;;;0.28;100.00
47670;BME280;33408;52.062;11.722;2023-11-22T09:19:35;102579.03;;;0.32;100.00
47670;BME280;33408;52.062;11.722;2023-11-22T09:22:02;102572.91;;;0.45;100.00
47670;BME280;33408;52.062;11.722;2023-11-22T09:24:30;102577.59;;;0.54;100.00
47670;BME280;33408;52.062;11.722;2023-11-22T09:26:57;102593.69;;;0.53;100.00
47670;BME280;33408;52.062;11.722;2023-11-22T09:29:24;102594.66;;;0.55;100.00
47670;BME280;33408;52.062;11.722;2023-11-22T09:31:51;102587.56;;;0.49;100.00
47670;BME280;33408;52.062;11.722;2023-11-22T09:34:19;102582.28;;;0.46;100.00
47670;BME280;33408;52.062;11.722;2023-11-22T09:36:46;102581.41;;;0.62;100.00
47670;BME280;33408;52.062;11.722;2023-11-22T09:39:13;102578.16;;;0.48;100.00
47670;BME280;33408;52.062;11.722;2023-11-22T09:41:39;102575.38;;;0.60;100.00
47670;BME280;33408;52.062;11.722;2023-11-22T09:44:06;102567.06;;;0.81;100.00
47670;BME280;33408;52.062;11.722;2023-11-22T09:46:36;102568.41;;;0.74;100.00
47670;BME280;33408;52.062;11.722;2023-11-22T09:49:08;102572.50;;;0.54;100.00
47670;BME280;33408;52.062;11.722;2023-11-22T09:51:38;102578.84;;;0.79;100.00
47670;BME280;33408;52.062;11.722;2023-11-22T09:54:08;102580.94;;;0.86;100.00
47670;BME280;33408;52.062;11.722;2023-11-22T09:56:39;102589.38;;;0.85;100.00
47670;BME280;33408;52.062;11.722;2023-11-22T09:59:07;102582.53;;;1.00;100.00
47670;BME280;33408;52.062;11.722;2023-11-22T10:01:37;102579.56;;;0.93;100.00
47670;BME280;33408;52.062;11.722;2023-11-22T10:04:04;102576.31;;;0.95;100.00
47670;BME280;33408;52.062;11.722;2023-11-22T10:06:32;102584.34;;;1.03;100.00
47670;BME280;33408;52.062;11.722;2023-11-22T10:09:02;102590.88;;;0.98;100.00
47670;BME280;33408;52.062;11.722;2023-11-22T10:11:32;102601.66;;;1.08;100.00
47670;BME280;33408;52.062;11.722;2023-11-22T10:14:01;102597.03;;;1.01;100.00
47670;BME280;33408;52.062;11.722;2023-11-22T10:16:28;102587.28;;;1.11;100.00
47670;BME280;33408;52.062;11.722;2023-11-22T10:18:54;102583.69;;;1.07;100.00
47670;BME280;33408;52.062;11.722;2023-11-22T10:21:22;102595.53;;;1.05;100.00
47670;BME280;33408;52.062;11.722;2023-11-22T10:23:50;102602.13;;;1.01;100.00
47670;BME280;33408;52.062;11.722;2023-11-22T10:26:19;102588.53;;;1.19;100.00
47670;BME280;33408;52.062;11.722;2023-11-22T10:28:46;102587.13;;;1.07;100.00
47670;BME280;33408;52.062;11.722;2023-11-22T10:31:13;102586.97;;;1.21;100.00
47670;BME280;33408;52.062;11.722;2023-11-22T10:33:40;102584.13;;;1.33;100.00
47670;BME280;33408;52.062;11.722;2023-11-22T10:36:07;102585.81;;;1.32;100.00
47670;BME280;33408;52.062;11.722;2023-11-22T10:38:34;102591.59;;;1.46;100.00
47670;BME280;33408;52.062;11.722;2023-11-22T10:41:03;102587.53;;;1.33;100.00
47670;BME280;33408;52.062;11.722;2023-11-22T10:43:33;102598.38;;;1.45;100.00
47670;BME280;33408;52.062;11.722;2023-11-22T10:46:01;102601.78;;;1.28;100.00
47670;BME280;33408;52.062;11.722;2023-11-22T10:48:30;102597.47;;;1.27;100.00
47670;BME280;33408;52.062;11.722;2023-11-22T10:51:00;102594.50;;;1.36;100.00
47670;BME280;33408;52.062;11.722;2023-11-22T10:53:31;102602.00;;;1.33;100.00
47670;BME280;33408;52.062;11.722;2023-11-22T10:56:03;102610.53;;;1.33;100.00
47670;BME280;33408;52.062;11.722;2023-11-22T10:58:33;102592.56;;;1.32;100.00
47670;BME280;33408;52.062;11.722;2023-11-22T11:01:04;102594.75;;;1.24;100.00
47670;BME280;33408;52.062;11.722;2023-11-22T11:03:36;102600.06;;;1.11;100.00
47670;BME280;33408;52.062;11.722;2023-11-22T11:06:08;102601.00;;;1.13;100.00
47670;BME280;33408;52.062;11.722;2023-11-22T11:08:38;102593.44;;;0.98;100.00
47670;BME280;33408;52.062;11.722;2023-11-22T11:11:06;102593.25;;;1.11;100.00
47670;BME280;33408;52.062;11.722;2023-11-22T11:13:34;102594.63;;;1.21;100.00
47670;BME280;33408;52.062;11.722;2023-11-22T11:16:01;102583.94;;;1.12;100.00
47670;BME280;33408;52.062;11.722;2023-11-22T11:18:28;102580.72;;;1.16;100.00
47670;BME280;33408;52.062;11.722;2023-11-22T11:20:56;102578.19;;;0.99;100.00
47670;BME280;33408;52.062;11.722;2023-11-22T11:23:25;102566.13;;;1.13;100.00
47670;BME280;33408;52.062;11.722;2023-11-22T11:25:54;102570.81;;;1.22;100.00
47670;BME280;33408;52.062;11.722;2023-11-22T11:28:21;102578.72;;;1.26;100.00
47670;BME280;33408;52.062;11.722;2023-11-22T11:30:52;102572.88;;;1.29;100.00
47670;BME280;33408;52.062;11.722;2023-11-22T11:33:26;102585.50;;;1.26;100.00
47670;BME280;33408;52.062;11.722;2023-11-22T11:35:56;102586.28;;;1.25;100.00
47670;BME280;33408;52.062;11.722;2023-11-22T11:38:30;102582.19;;;1.28;100.00
47670;BME280;33408;52.062;11.722;2023-11-22T11:41:06;102568.91;;;1.18;100.00
47670;BME280;33408;52.062;11.722;2023-11-22T11:43:40;102566.78;;;1.27;100.00
47670;BME280;33408;52.062;11.722;2023-11-22T11:46:08;102549.56;;;1.05;100.00
47670;BME280;33408;52.062;11.722;2023-11-22T11:48:36;102548.63;;;1.21;100.00
47670;BME280;33408;52.062;11.722;2023-11-22T11:51:02;102541.63;;;1.17;100.00
47670;BME280;33408;52.062;11.722;2023-11-22T11:53:29;102531.34;;;1.33;100.00
47670;BME280;33408;52.062;11.722;2023-11-22T11:55:57;102539.06;;;1.35;100.00
47670;BME280;33408;52.062;11.722;2023-11-22T11:58:24;102531.88;;;1.44;100.00
47670;BME280;33408;52.062;11.722;2023-11-22T12:00:51;102520.84;;;1.45;100.00
47670;BME280;33408;52.062;11.722;2023-11-22T12:03:21;102519.16;;;1.45;100.00
47670;BME280;33408;52.062;11.722;2023-11-22T12:05:48;102508.72;;;1.41;100.00
47670;BME280;33408;52.062;11.722;2023-11-22T12:08:15;102501.91;;;1.41;100.00
47670;BME280;33408;52.062;11.722;2023-11-22T12:10:42;102488.84;;;1.35;100.00
47670;BME280;33408;52.062;11.722;2023-11-22T12:13:09;102465.34;;;1.24;100.00
47670;BME280;33408;52.062;11.722;2023-11-22T12:15:36;102475.81;;;1.29;100.00
47670;BME280;33408;52.062;11.722;2023-11-22T12:18:03;102474.69;;;1.42;100.00
47670;BME280;33408;52.062;11.722;2023-11-22T12:20:31;102472.56;;;1.33;100.00
47670;BME280;33408;52.062;11.722;2023-11-22T12:22:58;102471.91;;;1.55;100.00
47670;BME280;33408;52.062;11.722;2023-11-22T12:25:26;102467.97;;;1.81;100.00
47670;BME280;33408;52.062;11.722;2023-11-22T12:27:54;102461.91;;;1.60;100.00
47670;BME280;33408;52.062;11.722;2023-11-22T12:30:31;102444.91;;;1.80;100.00
47670;BME280;33408;52.062;11.722;2023-11-22T12:33:00;102436.91;;;1.54;100.00
47670;BME280;33408;52.062;11.722;2023-11-22T12:35:29;102424.34;;;1.59;100.00